GLO1793 SBVT-SBBR
Flight info
| Callsign | GLO1793 |
|---|---|
| Flight time | N/A |
| Altitude | 38000 |
| Route | OPLOX UZ40 OPGOL |
| Aircraft | B738/M-SDE2E3FGHIRWXY/SB1 |
Departure
| Time | 2026-04-30 14:55 |
|---|---|
| Airport | Eurico de Aguiar Salles International Airport (SBVT) |
Arrival
| Time | N/A |
|---|---|
| Airport | Presidente Juscelino Kubitschek International Airport (SBBR) |
| Time | Latitude | Longitude | Altitude | Speed | Heading |
|---|---|---|---|---|---|
| 2026-04-30 14:44 | -20.25674 | -40.28839 | 17 ft | 0 kts | 300° |
| 2026-04-30 14:48 | -20.25676 | -40.28835 | 18 ft | 2 kts | 300° |
| 2026-04-30 14:49 | -20.25686 | -40.28821 | 19 ft | 2 kts | 315° |
| 2026-04-30 14:49 | -20.25699 | -40.28811 | 18 ft | 2 kts | 349° |
| 2026-04-30 14:49 | -20.25715 | -40.28813 | 18 ft | 2 kts | 25° |
| 2026-04-30 14:49 | -20.25724 | -40.28818 | 20 ft | 1 kts | 32° |
| 2026-04-30 14:50 | -20.25725 | -40.28819 | 20 ft | 0 kts | 33° |
| 2026-04-30 14:51 | -20.25721 | -40.28815 | 19 ft | 1 kts | 37° |
| 2026-04-30 14:51 | -20.25719 | -40.28749 | 18 ft | 11 kts | 117° |
| 2026-04-30 14:52 | -20.25766 | -40.28665 | 16 ft | 15 kts | 121° |
| 2026-04-30 14:52 | -20.25795 | -40.28479 | 17 ft | 16 kts | 39° |
| 2026-04-30 14:52 | -20.25688 | -40.28406 | 17 ft | 20 kts | 33° |
| 2026-04-30 14:53 | -20.25463 | -40.28257 | 18 ft | 19 kts | 32° |
| 2026-04-30 14:53 | -20.25353 | -40.28189 | 19 ft | 18 kts | 26° |
| 2026-04-30 14:54 | -20.25192 | -40.28051 | 18 ft | 11 kts | 124° |
| 2026-04-30 14:54 | -20.25824 | -40.27961 | 21 ft | 121 kts | 172° |
| 2026-04-30 14:55 | -20.28104 | -40.27681 | 1380 ft | 169 kts | 173° |
| 2026-04-30 14:55 | -20.29261 | -40.27523 | 2426 ft | 165 kts | 170° |
| 2026-04-30 14:55 | -20.31710 | -40.27190 | 3465 ft | 204 kts | 171° |
| 2026-04-30 14:56 | -20.34847 | -40.26667 | 4025 ft | 245 kts | 171° |
| 2026-04-30 14:56 | -20.37917 | -40.27880 | 5155 ft | 254 kts | 235° |
| 2026-04-30 14:57 | -20.38598 | -40.29649 | 5564 ft | 269 kts | 263° |
| 2026-04-30 14:57 | -20.37627 | -40.33556 | 6899 ft | 283 kts | 303° |
| 2026-04-30 14:58 | -20.35431 | -40.37074 | 8082 ft | 285 kts | 306° |
| 2026-04-30 14:58 | -20.34307 | -40.38851 | 8778 ft | 293 kts | 306° |
| 2026-04-30 14:58 | -20.32026 | -40.42560 | 10227 ft | 304 kts | 304° |
| 2026-04-30 14:59 | -20.29671 | -40.46479 | 11251 ft | 325 kts | 303° |
| 2026-04-30 15:00 | -20.25979 | -40.52674 | 13432 ft | 331 kts | 302° |
| 2026-04-30 15:00 | -20.23337 | -40.56753 | 14669 ft | 338 kts | 309° |
| 2026-04-30 15:01 | -20.20264 | -40.60564 | 15953 ft | 341 kts | 311° |
| 2026-04-30 15:01 | -20.18702 | -40.62470 | 16596 ft | 342 kts | 310° |
| 2026-04-30 15:01 | -20.15600 | -40.66301 | 17835 ft | 346 kts | 310° |
| 2026-04-30 15:02 | -20.14035 | -40.68255 | 18454 ft | 347 kts | 310° |
| 2026-04-30 15:02 | -20.12463 | -40.70223 | 18974 ft | 350 kts | 310° |
| 2026-04-30 15:03 | -20.07663 | -40.76252 | 20446 ft | 359 kts | 310° |
| 2026-04-30 15:03 | -20.04439 | -40.80303 | 21480 ft | 364 kts | 310° |
| 2026-04-30 15:04 | -20.01136 | -40.84450 | 22490 ft | 369 kts | 310° |
| 2026-04-30 15:04 | -19.96098 | -40.90772 | 23930 ft | 377 kts | 310° |
| 2026-04-30 15:05 | -19.90952 | -40.97222 | 25088 ft | 386 kts | 310° |
| 2026-04-30 15:06 | -19.87476 | -41.01575 | 25903 ft | 390 kts | 310° |
| 2026-04-30 15:06 | -19.84336 | -41.06279 | 26732 ft | 393 kts | 298° |
| 2026-04-30 15:07 | -19.81750 | -41.11440 | 27486 ft | 398 kts | 298° |
| 2026-04-30 15:07 | -19.79087 | -41.16633 | 28225 ft | 403 kts | 299° |
| 2026-04-30 15:08 | -19.76337 | -41.21853 | 28963 ft | 407 kts | 299° |
| 2026-04-30 15:08 | -19.72198 | -41.29775 | 29998 ft | 414 kts | 298° |
| 2026-04-30 15:09 | -19.69396 | -41.35157 | 30588 ft | 418 kts | 298° |
| 2026-04-30 15:09 | -19.66575 | -41.40565 | 31197 ft | 420 kts | 298° |
| 2026-04-30 15:10 | -19.63723 | -41.46012 | 31760 ft | 423 kts | 298° |
| 2026-04-30 15:11 | -19.57931 | -41.56992 | 32832 ft | 429 kts | 298° |
| 2026-04-30 15:11 | -19.55022 | -41.62502 | 33327 ft | 432 kts | 298° |
| 2026-04-30 15:12 | -19.50589 | -41.70895 | 34011 ft | 437 kts | 298° |
| 2026-04-30 15:13 | -19.47605 | -41.76536 | 34442 ft | 439 kts | 298° |
| 2026-04-30 15:14 | -19.41616 | -41.87848 | 35172 ft | 444 kts | 298° |
| 2026-04-30 15:14 | -19.37065 | -41.96449 | 35744 ft | 446 kts | 298° |
| 2026-04-30 15:16 | -19.29393 | -42.10598 | 36919 ft | 442 kts | 299° |
| 2026-04-30 15:17 | -19.23131 | -42.21757 | 37742 ft | 440 kts | 300° |
| 2026-04-30 15:18 | -19.15289 | -42.35630 | 38060 ft | 438 kts | 299° |
| 2026-04-30 15:19 | -19.10625 | -42.43875 | 38067 ft | 433 kts | 299° |